sensor_id;sensor_type;location;lat;lon;timestamp;pressure;altitude;pressure_sealevel;temperature
38114;BMP180;23926;53.222;6.354;2023-11-22T00:00:43;102711.00;;;8.80
38114;BMP180;23926;53.222;6.354;2023-11-22T00:03:09;102703.00;;;8.70
38114;BMP180;23926;53.222;6.354;2023-11-22T00:05:34;102690.00;;;8.70
38114;BMP180;23926;53.222;6.354;2023-11-22T00:07:59;102707.00;;;8.80
38114;BMP180;23926;53.222;6.354;2023-11-22T00:10:25;102704.00;;;8.80
38114;BMP180;23926;53.222;6.354;2023-11-22T00:12:50;102708.00;;;8.80
38114;BMP180;23926;53.222;6.354;2023-11-22T00:15:16;102692.00;;;8.70
38114;BMP180;23926;53.222;6.354;2023-11-22T00:17:46;102702.00;;;8.70
38114;BMP180;23926;53.222;6.354;2023-11-22T00:20:12;102689.00;;;8.80
38114;BMP180;23926;53.222;6.354;2023-11-22T00:22:38;102685.00;;;8.90
38114;BMP180;23926;53.222;6.354;2023-11-22T00:25:03;102699.00;;;8.80
38114;BMP180;23926;53.222;6.354;2023-11-22T00:27:30;102701.00;;;8.80
38114;BMP180;23926;53.222;6.354;2023-11-22T00:29:57;102711.00;;;8.80
38114;BMP180;23926;53.222;6.354;2023-11-22T00:32:23;102709.00;;;8.90
38114;BMP180;23926;53.222;6.354;2023-11-22T00:34:48;102714.00;;;8.90
38114;BMP180;23926;53.222;6.354;2023-11-22T00:37:14;102717.00;;;8.90
38114;BMP180;23926;53.222;6.354;2023-11-22T00:39:40;102727.00;;;9.00
38114;BMP180;23926;53.222;6.354;2023-11-22T00:42:07;102721.00;;;9.00
38114;BMP180;23926;53.222;6.354;2023-11-22T00:44:32;102730.00;;;8.90
38114;BMP180;23926;53.222;6.354;2023-11-22T00:46:58;102732.00;;;8.90
38114;BMP180;23926;53.222;6.354;2023-11-22T00:49:23;102721.00;;;9.00
38114;BMP180;23926;53.222;6.354;2023-11-22T00:51:49;102722.00;;;9.10
38114;BMP180;23926;53.222;6.354;2023-11-22T00:54:16;102724.00;;;9.20
38114;BMP180;23926;53.222;6.354;2023-11-22T00:56:42;102732.00;;;9.20
38114;BMP180;23926;53.222;6.354;2023-11-22T00:59:07;102747.00;;;9.10
38114;BMP180;23926;53.222;6.354;2023-11-22T01:01:33;102747.00;;;9.30
38114;BMP180;23926;53.222;6.354;2023-11-22T01:03:59;102752.00;;;9.10
38114;BMP180;23926;53.222;6.354;2023-11-22T01:06:24;102753.00;;;9.10
38114;BMP180;23926;53.222;6.354;2023-11-22T01:08:50;102754.00;;;9.10
38114;BMP180;23926;53.222;6.354;2023-11-22T01:11:16;102767.00;;;9.20
38114;BMP180;23926;53.222;6.354;2023-11-22T01:13:41;102756.00;;;9.40
38114;BMP180;23926;53.222;6.354;2023-11-22T01:16:11;102739.00;;;9.50
38114;BMP180;23926;53.222;6.354;2023-11-22T01:18:38;102733.00;;;9.50
38114;BMP180;23926;53.222;6.354;2023-11-22T01:21:03;102732.00;;;9.50
38114;BMP180;23926;53.222;6.354;2023-11-22T01:23:30;102736.00;;;9.40
38114;BMP180;23926;53.222;6.354;2023-11-22T01:25:55;102732.00;;;9.50
38114;BMP180;23926;53.222;6.354;2023-11-22T01:28:20;102737.00;;;9.30
38114;BMP180;23926;53.222;6.354;2023-11-22T01:30:47;102733.00;;;9.30
38114;BMP180;23926;53.222;6.354;2023-11-22T01:33:12;102731.00;;;9.20
38114;BMP180;23926;53.222;6.354;2023-11-22T01:35:38;102734.00;;;9.20
38114;BMP180;23926;53.222;6.354;2023-11-22T01:38:04;102740.00;;;9.20
38114;BMP180;23926;53.222;6.354;2023-11-22T01:40:30;102740.00;;;9.10
38114;BMP180;23926;53.222;6.354;2023-11-22T01:42:59;102737.00;;;9.00
38114;BMP180;23926;53.222;6.354;2023-11-22T01:45:25;102742.00;;;8.90
38114;BMP180;23926;53.222;6.354;2023-11-22T01:47:51;102749.00;;;8.90
38114;BMP180;23926;53.222;6.354;2023-11-22T01:50:17;102762.00;;;8.90
38114;BMP180;23926;53.222;6.354;2023-11-22T01:52:43;102762.00;;;8.80
38114;BMP180;23926;53.222;6.354;2023-11-22T01:55:09;102764.00;;;8.70
38114;BMP180;23926;53.222;6.354;2023-11-22T01:57:35;102762.00;;;8.60
38114;BMP180;23926;53.222;6.354;2023-11-22T02:00:02;102752.00;;;8.60
38114;BMP180;23926;53.222;6.354;2023-11-22T02:02:30;102749.00;;;8.70
38114;BMP180;23926;53.222;6.354;2023-11-22T02:04:55;102759.00;;;8.70
38114;BMP180;23926;53.222;6.354;2023-11-22T02:07:21;102758.00;;;8.80
38114;BMP180;23926;53.222;6.354;2023-11-22T02:09:47;102747.00;;;8.80
38114;BMP180;23926;53.222;6.354;2023-11-22T02:12:12;102745.00;;;8.70
38114;BMP180;23926;53.222;6.354;2023-11-22T02:14:38;102749.00;;;8.70
38114;BMP180;23926;53.222;6.354;2023-11-22T02:17:03;102745.00;;;8.60
38114;BMP180;23926;53.222;6.354;2023-11-22T02:19:29;102751.00;;;8.60
38114;BMP180;23926;53.222;6.354;2023-11-22T02:21:55;102747.00;;;8.50
38114;BMP180;23926;53.222;6.354;2023-11-22T02:24:21;102742.00;;;8.50
38114;BMP180;23926;53.222;6.354;2023-11-22T02:26:47;102743.00;;;8.40
38114;BMP180;23926;53.222;6.354;2023-11-22T02:29:12;102739.00;;;8.20
38114;BMP180;23926;53.222;6.354;2023-11-22T02:31:41;102736.00;;;8.10
38114;BMP180;23926;53.222;6.354;2023-11-22T02:34:06;102735.00;;;8.00
38114;BMP180;23926;53.222;6.354;2023-11-22T02:36:32;102722.00;;;7.90
38114;BMP180;23926;53.222;6.354;2023-11-22T02:38:57;102719.00;;;7.80
38114;BMP180;23926;53.222;6.354;2023-11-22T02:41:23;102719.00;;;7.70
38114;BMP180;23926;53.222;6.354;2023-11-22T02:43:50;102732.00;;;7.50
38114;BMP180;23926;53.222;6.354;2023-11-22T02:46:16;102737.00;;;7.40
38114;BMP180;23926;53.222;6.354;2023-11-22T02:48:41;102732.00;;;7.30
38114;BMP180;23926;53.222;6.354;2023-11-22T02:51:06;102731.00;;;7.20
38114;BMP180;23926;53.222;6.354;2023-11-22T02:53:32;102737.00;;;7.10
38114;BMP180;23926;53.222;6.354;2023-11-22T02:56:00;102728.00;;;7.00
38114;BMP180;23926;53.222;6.354;2023-11-22T02:58:28;102730.00;;;7.00
38114;BMP180;23926;53.222;6.354;2023-11-22T03:00:54;102727.00;;;7.00
38114;BMP180;23926;53.222;6.354;2023-11-22T03:03:22;102730.00;;;6.90
38114;BMP180;23926;53.222;6.354;2023-11-22T03:05:49;102743.00;;;6.90
38114;BMP180;23926;53.222;6.354;2023-11-22T03:08:15;102755.00;;;6.80
38114;BMP180;23926;53.222;6.354;2023-11-22T03:10:41;102757.00;;;6.60
38114;BMP180;23926;53.222;6.354;2023-11-22T03:13:07;102761.00;;;6.60
38114;BMP180;23926;53.222;6.354;2023-11-22T03:15:34;102772.00;;;6.40
38114;BMP180;23926;53.222;6.354;2023-11-22T03:18:00;102780.00;;;6.30
38114;BMP180;23926;53.222;6.354;2023-11-22T03:20:26;102780.00;;;6.30
38114;BMP180;23926;53.222;6.354;2023-11-22T03:22:52;102788.00;;;6.30
38114;BMP180;23926;53.222;6.354;2023-11-22T03:25:17;102790.00;;;6.40
38114;BMP180;23926;53.222;6.354;2023-11-22T03:27:43;102802.00;;;6.40
38114;BMP180;23926;53.222;6.354;2023-11-22T03:30:09;102808.00;;;6.40
38114;BMP180;23926;53.222;6.354;2023-11-22T03:32:38;102795.00;;;6.50
38114;BMP180;23926;53.222;6.354;2023-11-22T03:35:05;102806.00;;;6.50
38114;BMP180;23926;53.222;6.354;2023-11-22T03:37:32;102794.00;;;6.50
38114;BMP180;23926;53.222;6.354;2023-11-22T03:39:57;102789.00;;;6.40
38114;BMP180;23926;53.222;6.354;2023-11-22T03:42:23;102782.00;;;6.40
38114;BMP180;23926;53.222;6.354;2023-11-22T03:44:48;102793.00;;;6.30
38114;BMP180;23926;53.222;6.354;2023-11-22T03:47:15;102792.00;;;6.30
38114;BMP180;23926;53.222;6.354;2023-11-22T03:49:41;102789.00;;;6.30
38114;BMP180;23926;53.222;6.354;2023-11-22T03:52:06;102788.00;;;6.20
38114;BMP180;23926;53.222;6.354;2023-11-22T03:54:33;102785.00;;;6.20
38114;BMP180;23926;53.222;6.354;2023-11-22T03:56:58;102784.00;;;6.10
38114;BMP180;23926;53.222;6.354;2023-11-22T03:59:24;102781.00;;;6.10
38114;BMP180;23926;53.222;6.354;2023-11-22T04:01:50;102786.00;;;6.10
38114;BMP180;23926;53.222;6.354;2023-11-22T04:04:16;102789.00;;;6.10
38114;BMP180;23926;53.222;6.354;2023-11-22T04:06:41;102780.00;;;6.10
38114;BMP180;23926;53.222;6.354;2023-11-22T04:09:07;102779.00;;;6.10
38114;BMP180;23926;53.222;6.354;2023-11-22T04:11:33;102785.00;;;6.00
38114;BMP180;23926;53.222;6.354;2023-11-22T04:14:00;102770.00;;;5.90
38114;BMP180;23926;53.222;6.354;2023-11-22T04:16:25;102790.00;;;5.80
38114;BMP180;23926;53.222;6.354;2023-11-22T04:18:51;102773.00;;;5.70
38114;BMP180;23926;53.222;6.354;2023-11-22T04:21:16;102771.00;;;5.60
38114;BMP180;23926;53.222;6.354;2023-11-22T04:23:42;102777.00;;;5.60
38114;BMP180;23926;53.222;6.354;2023-11-22T04:26:07;102762.00;;;5.60
38114;BMP180;23926;53.222;6.354;2023-11-22T04:28:33;102761.00;;;5.60
38114;BMP180;23926;53.222;6.354;2023-11-22T04:30:59;102784.00;;;5.50
38114;BMP180;23926;53.222;6.354;2023-11-22T04:33:25;102770.00;;;5.50
38114;BMP180;23926;53.222;6.354;2023-11-22T04:35:54;102773.00;;;5.50
38114;BMP180;23926;53.222;6.354;2023-11-22T04:38:20;102777.00;;;5.50
38114;BMP180;23926;53.222;6.354;2023-11-22T04:40:45;102775.00;;;5.50
38114;BMP180;23926;53.222;6.354;2023-11-22T04:43:11;102772.00;;;5.60
38114;BMP180;23926;53.222;6.354;2023-11-22T04:45:36;102767.00;;;5.60
38114;BMP180;23926;53.222;6.354;2023-11-22T04:48:03;102789.00;;;5.50
38114;BMP180;23926;53.222;6.354;2023-11-22T04:50:29;102792.00;;;5.50
38114;BMP180;23926;53.222;6.354;2023-11-22T04:52:55;102792.00;;;5.50
38114;BMP180;23926;53.222;6.354;2023-11-22T04:55:20;102793.00;;;5.60
38114;BMP180;23926;53.222;6.354;2023-11-22T04:57:46;102791.00;;;5.60
38114;BMP180;23926;53.222;6.354;2023-11-22T05:00:12;102794.00;;;5.70
38114;BMP180;23926;53.222;6.354;2023-11-22T05:02:38;102797.00;;;5.80
38114;BMP180;23926;53.222;6.354;2023-11-22T05:05:04;102789.00;;;5.90
38114;BMP180;23926;53.222;6.354;2023-11-22T05:07:29;102786.00;;;5.90
38114;BMP180;23926;53.222;6.354;2023-11-22T05:09:54;102791.00;;;5.90
38114;BMP180;23926;53.222;6.354;2023-11-22T05:12:20;102778.00;;;5.90
38114;BMP180;23926;53.222;6.354;2023-11-22T05:14:46;102793.00;;;5.90
38114;BMP180;23926;53.222;6.354;2023-11-22T05:17:11;102785.00;;;6.00
38114;BMP180;23926;53.222;6.354;2023-11-22T05:19:38;102785.00;;;6.10
38114;BMP180;23926;53.222;6.354;2023-11-22T05:22:03;102788.00;;;6.20
38114;BMP180;23926;53.222;6.354;2023-11-22T05:24:29;102777.00;;;6.30
38114;BMP180;23926;53.222;6.354;2023-11-22T05:26:54;102766.00;;;6.30
38114;BMP180;23926;53.222;6.354;2023-11-22T05:29:19;102789.00;;;6.20
38114;BMP180;23926;53.222;6.354;2023-11-22T05:31:45;102778.00;;;6.20
38114;BMP180;23926;53.222;6.354;2023-11-22T05:34:10;102779.00;;;6.30
38114;BMP180;23926;53.222;6.354;2023-11-22T05:36:35;102792.00;;;6.30
38114;BMP180;23926;53.222;6.354;2023-11-22T05:39:01;102802.00;;;6.30
38114;BMP180;23926;53.222;6.354;2023-11-22T05:41:29;102808.00;;;6.20
38114;BMP180;23926;53.222;6.354;2023-11-22T05:43:54;102799.00;;;6.20
38114;BMP180;23926;53.222;6.354;2023-11-22T05:46:21;102789.00;;;6.20
38114;BMP180;23926;53.222;6.354;2023-11-22T05:48:53;102798.00;;;6.20
38114;BMP180;23926;53.222;6.354;2023-11-22T05:51:20;102788.00;;;6.20
38114;BMP180;23926;53.222;6.354;2023-11-22T05:53:45;102774.00;;;6.30
38114;BMP180;23926;53.222;6.354;2023-11-22T05:56:11;102768.00;;;6.40
38114;BMP180;23926;53.222;6.354;2023-11-22T05:58:37;102769.00;;;6.50
38114;BMP180;23926;53.222;6.354;2023-11-22T06:01:06;102766.00;;;6.60
38114;BMP180;23926;53.222;6.354;2023-11-22T06:03:32;102776.00;;;6.60
38114;BMP180;23926;53.222;6.354;2023-11-22T06:05:57;102782.00;;;6.50
38114;BMP180;23926;53.222;6.354;2023-11-22T06:08:23;102793.00;;;6.40
38114;BMP180;23926;53.222;6.354;2023-11-22T06:10:48;102808.00;;;6.30
38114;BMP180;23926;53.222;6.354;2023-11-22T06:13:14;102801.00;;;6.40
38114;BMP180;23926;53.222;6.354;2023-11-22T06:15:40;102804.00;;;6.40
38114;BMP180;23926;53.222;6.354;2023-11-22T06:18:05;102806.00;;;6.30
38114;BMP180;23926;53.222;6.354;2023-11-22T06:20:31;102810.00;;;6.10
38114;BMP180;23926;53.222;6.354;2023-11-22T06:22:56;102816.00;;;6.00
38114;BMP180;23926;53.222;6.354;2023-11-22T06:25:22;102831.00;;;6.00
38114;BMP180;23926;53.222;6.354;2023-11-22T06:27:47;102829.00;;;6.00
38114;BMP180;23926;53.222;6.354;2023-11-22T06:30:12;102834.00;;;5.90
38114;BMP180;23926;53.222;6.354;2023-11-22T06:32:39;102829.00;;;5.90
38114;BMP180;23926;53.222;6.354;2023-11-22T06:35:07;102820.00;;;5.90
38114;BMP180;23926;53.222;6.354;2023-11-22T06:37:34;102810.00;;;5.90
38114;BMP180;23926;53.222;6.354;2023-11-22T06:39:59;102810.00;;;6.00
38114;BMP180;23926;53.222;6.354;2023-11-22T06:42:25;102806.00;;;6.10
38114;BMP180;23926;53.222;6.354;2023-11-22T06:44:52;102798.00;;;6.10
38114;BMP180;23926;53.222;6.354;2023-11-22T06:47:21;102803.00;;;6.00
38114;BMP180;23926;53.222;6.354;2023-11-22T06:49:47;102796.00;;;5.90
38114;BMP180;23926;53.222;6.354;2023-11-22T06:52:12;102785.00;;;6.00
38114;BMP180;23926;53.222;6.354;2023-11-22T06:54:38;102786.00;;;6.00
38114;BMP180;23926;53.222;6.354;2023-11-22T06:57:03;102784.00;;;6.00
38114;BMP180;23926;53.222;6.354;2023-11-22T06:59:29;102776.00;;;5.90
38114;BMP180;23926;53.222;6.354;2023-11-22T07:01:54;102785.00;;;5.90
38114;BMP180;23926;53.222;6.354;2023-11-22T07:04:21;102781.00;;;5.90
38114;BMP180;23926;53.222;6.354;2023-11-22T07:06:48;102781.00;;;5.90
38114;BMP180;23926;53.222;6.354;2023-11-22T07:09:14;102796.00;;;5.90
38114;BMP180;23926;53.222;6.354;2023-11-22T07:11:39;102792.00;;;5.80
38114;BMP180;23926;53.222;6.354;2023-11-22T07:14:04;102778.00;;;5.80
38114;BMP180;23926;53.222;6.354;2023-11-22T07:16:31;102783.00;;;5.90
38114;BMP180;23926;53.222;6.354;2023-11-22T07:18:57;102786.00;;;6.00
38114;BMP180;23926;53.222;6.354;2023-11-22T07:21:22;102783.00;;;6.00
38114;BMP180;23926;53.222;6.354;2023-11-22T07:23:48;102776.00;;;6.10
38114;BMP180;23926;53.222;6.354;2023-11-22T07:26:13;102776.00;;;6.20
38114;BMP180;23926;53.222;6.354;2023-11-22T07:28:42;102775.00;;;6.30
38114;BMP180;23926;53.222;6.354;2023-11-22T07:31:08;102780.00;;;6.30
38114;BMP180;23926;53.222;6.354;2023-11-22T07:33:34;102787.00;;;6.30
38114;BMP180;23926;53.222;6.354;2023-11-22T07:36:00;102800.00;;;6.30
38114;BMP180;23926;53.222;6.354;2023-11-22T07:38:26;102806.00;;;6.40
38114;BMP180;23926;53.222;6.354;2023-11-22T07:40:52;102818.00;;;6.40
38114;BMP180;23926;53.222;6.354;2023-11-22T07:43:18;102820.00;;;6.50
38114;BMP180;23926;53.222;6.354;2023-11-22T07:45:43;102825.00;;;6.60
38114;BMP180;23926;53.222;6.354;2023-11-22T07:48:12;102846.00;;;6.70
38114;BMP180;23926;53.222;6.354;2023-11-22T07:50:38;102853.00;;;6.70
38114;BMP180;23926;53.222;6.354;2023-11-22T07:53:04;102846.00;;;6.70
38114;BMP180;23926;53.222;6.354;2023-11-22T07:55:30;102855.00;;;6.70
38114;BMP180;23926;53.222;6.354;2023-11-22T07:57:56;102867.00;;;6.70
38114;BMP180;23926;53.222;6.354;2023-11-22T08:00:22;102865.00;;;6.80
38114;BMP180;23926;53.222;6.354;2023-11-22T08:02:48;102869.00;;;6.90
38114;BMP180;23926;53.222;6.354;2023-11-22T08:05:13;102871.00;;;7.00
38114;BMP180;23926;53.222;6.354;2023-11-22T08:07:41;102874.00;;;7.10
38114;BMP180;23926;53.222;6.354;2023-11-22T08:10:09;102862.00;;;7.10
38114;BMP180;23926;53.222;6.354;2023-11-22T08:12:38;102856.00;;;7.10
38114;BMP180;23926;53.222;6.354;2023-11-22T08:15:04;102849.00;;;7.00
38114;BMP180;23926;53.222;6.354;2023-11-22T08:17:29;102851.00;;;7.20
38114;BMP180;23926;53.222;6.354;2023-11-22T08:19:58;102862.00;;;7.30
38114;BMP180;23926;53.222;6.354;2023-11-22T08:22:24;102862.00;;;7.40
38114;BMP180;23926;53.222;6.354;2023-11-22T08:24:51;102872.00;;;7.40
38114;BMP180;23926;53.222;6.354;2023-11-22T08:27:16;102871.00;;;7.50
38114;BMP180;23926;53.222;6.354;2023-11-22T08:29:43;102854.00;;;7.50
38114;BMP180;23926;53.222;6.354;2023-11-22T08:32:11;102844.00;;;7.60
38114;BMP180;23926;53.222;6.354;2023-11-22T08:34:36;102843.00;;;7.70
38114;BMP180;23926;53.222;6.354;2023-11-22T08:37:02;102828.00;;;7.80
38114;BMP180;23926;53.222;6.354;2023-11-22T08:39:27;102811.00;;;7.90
38114;BMP180;23926;53.222;6.354;2023-11-22T08:41:55;102813.00;;;8.00
38114;BMP180;23926;53.222;6.354;2023-11-22T08:44:20;102827.00;;;8.00
38114;BMP180;23926;53.222;6.354;2023-11-22T08:46:45;102837.00;;;8.00
38114;BMP180;23926;53.222;6.354;2023-11-22T08:49:12;102836.00;;;8.10
38114;BMP180;23926;53.222;6.354;2023-11-22T08:51:37;102837.00;;;8.10
38114;BMP180;23926;53.222;6.354;2023-11-22T08:54:03;102852.00;;;8.10
38114;BMP180;23926;53.222;6.354;2023-11-22T08:56:29;102838.00;;;8.00
38114;BMP180;23926;53.222;6.354;2023-11-22T08:58:54;102831.00;;;8.10
38114;BMP180;23926;53.222;6.354;2023-11-22T09:01:20;102836.00;;;8.20
38114;BMP180;23926;53.222;6.354;2023-11-22T09:03:45;102840.00;;;8.20
38114;BMP180;23926;53.222;6.354;2023-11-22T09:06:11;102827.00;;;8.20
38114;BMP180;23926;53.222;6.354;2023-11-22T09:08:36;102825.00;;;8.30
38114;BMP180;23926;53.222;6.354;2023-11-22T09:11:02;102836.00;;;8.40
38114;BMP180;23926;53.222;6.354;2023-11-22T09:13:31;102843.00;;;8.40
38114;BMP180;23926;53.222;6.354;2023-11-22T09:15:56;102854.00;;;8.40
38114;BMP180;23926;53.222;6.354;2023-11-22T09:18:22;102850.00;;;8.40
38114;BMP180;23926;53.222;6.354;2023-11-22T09:20:47;102842.00;;;8.50
38114;BMP180;23926;53.222;6.354;2023-11-22T09:23:13;102840.00;;;8.50
38114;BMP180;23926;53.222;6.354;2023-11-22T09:25:40;102838.00;;;8.40
38114;BMP180;23926;53.222;6.354;2023-11-22T09:28:05;102849.00;;;8.50
38114;BMP180;23926;53.222;6.354;2023-11-22T09:30:32;102838.00;;;8.50
38114;BMP180;23926;53.222;6.354;2023-11-22T09:33:05;102848.00;;;8.50
38114;BMP180;23926;53.222;6.354;2023-11-22T09:35:32;102847.00;;;8.60
38114;BMP180;23926;53.222;6.354;2023-11-22T09:37:59;102848.00;;;8.80
38114;BMP180;23926;53.222;6.354;2023-11-22T09:40:26;102841.00;;;8.80
38114;BMP180;23926;53.222;6.354;2023-11-22T09:42:52;102828.00;;;8.70
38114;BMP180;23926;53.222;6.354;2023-11-22T09:45:19;102816.00;;;8.80
38114;BMP180;23926;53.222;6.354;2023-11-22T09:47:45;102812.00;;;8.80
38114;BMP180;23926;53.222;6.354;2023-11-22T09:50:19;102811.00;;;8.90
38114;BMP180;23926;53.222;6.354;2023-11-22T09:52:47;102812.00;;;9.10
38114;BMP180;23926;53.222;6.354;2023-11-22T09:55:14;102814.00;;;9.10
38114;BMP180;23926;53.222;6.354;2023-11-22T09:57:40;102810.00;;;9.10
38114;BMP180;23926;53.222;6.354;2023-11-22T10:00:09;102827.00;;;9.10
38114;BMP180;23926;53.222;6.354;2023-11-22T10:02:42;102827.00;;;9.20
38114;BMP180;23926;53.222;6.354;2023-11-22T10:05:08;102825.00;;;9.10
38114;BMP180;23926;53.222;6.354;2023-11-22T10:07:37;102825.00;;;9.10
38114;BMP180;23926;53.222;6.354;2023-11-22T10:10:04;102826.00;;;9.10
38114;BMP180;23926;53.222;6.354;2023-11-22T10:12:31;102832.00;;;9.20
38114;BMP180;23926;53.222;6.354;2023-11-22T10:15:16;102838.00;;;9.20
38114;BMP180;23926;53.222;6.354;2023-11-22T10:17:57;102837.00;;;9.20
38114;BMP180;23926;53.222;6.354;2023-11-22T10:20:24;102835.00;;;9.20
38114;BMP180;23926;53.222;6.354;2023-11-22T10:22:51;102839.00;;;9.20
38114;BMP180;23926;53.222;6.354;2023-11-22T10:25:17;102836.00;;;9.30
38114;BMP180;23926;53.222;6.354;2023-11-22T10:27:46;102829.00;;;9.30
38114;BMP180;23926;53.222;6.354;2023-11-22T10:30:13;102834.00;;;9.50
38114;BMP180;23926;53.222;6.354;2023-11-22T10:32:41;102814.00;;;9.60
38114;BMP180;23926;53.222;6.354;2023-11-22T10:35:06;102796.00;;;9.70
38114;BMP180;23926;53.222;6.354;2023-11-22T10:37:33;102778.00;;;9.70
38114;BMP180;23926;53.222;6.354;2023-11-22T10:39:59;102755.00;;;9.90
38114;BMP180;23926;53.222;6.354;2023-11-22T10:42:26;102740.00;;;9.90
38114;BMP180;23926;53.222;6.354;2023-11-22T10:44:55;102728.00;;;9.80
38114;BMP180;23926;53.222;6.354;2023-11-22T10:47:22;102712.00;;;9.80
38114;BMP180;23926;53.222;6.354;2023-11-22T10:49:49;102697.00;;;9.80
38114;BMP180;23926;53.222;6.354;2023-11-22T10:52:18;102703.00;;;9.80
38114;BMP180;23926;53.222;6.354;2023-11-22T10:54:50;102689.00;;;9.70
38114;BMP180;23926;53.222;6.354;2023-11-22T10:57:22;102692.00;;;9.60
38114;BMP180;23926;53.222;6.354;2023-11-22T10:59:54;102680.00;;;9.60
38114;BMP180;23926;53.222;6.354;2023-11-22T11:02:21;102659.00;;;9.50
38114;BMP180;23926;53.222;6.354;2023-11-22T11:04:57;102667.00;;;9.70
38114;BMP180;23926;53.222;6.354;2023-11-22T11:07:26;102678.00;;;9.70
38114;BMP180;23926;53.222;6.354;2023-11-22T11:09:54;102663.00;;;9.60
38114;BMP180;23926;53.222;6.354;2023-11-22T11:12:22;102671.00;;;9.80
38114;BMP180;23926;53.222;6.354;2023-11-22T11:14:48;102668.00;;;9.90
38114;BMP180;23926;53.222;6.354;2023-11-22T11:17:15;102691.00;;;9.90
38114;BMP180;23926;53.222;6.354;2023-11-22T11:19:41;102687.00;;;10.10
38114;BMP180;23926;53.222;6.354;2023-11-22T11:22:10;102676.00;;;10.30
38114;BMP180;23926;53.222;6.354;2023-11-22T11:24:40;102655.00;;;10.40
38114;BMP180;23926;53.222;6.354;2023-11-22T11:27:10;102651.00;;;10.20
38114;BMP180;23926;53.222;6.354;2023-11-22T11:29:36;102670.00;;;10.40
38114;BMP180;23926;53.222;6.354;2023-11-22T11:32:10;102664.00;;;10.50
38114;BMP180;23926;53.222;6.354;2023-11-22T11:34:49;102665.00;;;10.40
38114;BMP180;23926;53.222;6.354;2023-11-22T11:37:15;102658.00;;;10.40
38114;BMP180;23926;53.222;6.354;2023-11-22T11:39:40;102651.00;;;10.50
38114;BMP180;23926;53.222;6.354;2023-11-22T11:42:10;102631.00;;;10.40
38114;BMP180;23926;53.222;6.354;2023-11-22T11:44:35;102639.00;;;10.20
38114;BMP180;23926;53.222;6.354;2023-11-22T11:47:09;102627.00;;;10.20
38114;BMP180;23926;53.222;6.354;2023-11-22T11:49:37;102624.00;;;10.30
38114;BMP180;23926;53.222;6.354;2023-11-22T11:52:04;102627.00;;;10.30
38114;BMP180;23926;53.222;6.354;2023-11-22T11:54:29;102629.00;;;10.40
38114;BMP180;23926;53.222;6.354;2023-11-22T11:57:01;102625.00;;;10.40
38114;BMP180;23926;53.222;6.354;2023-11-22T11:59:27;102618.00;;;10.20
38114;BMP180;23926;53.222;6.354;2023-11-22T12:01:54;102618.00;;;10.30
38114;BMP180;23926;53.222;6.354;2023-11-22T12:04:22;102621.00;;;10.40
38114;BMP180;23926;53.222;6.354;2023-11-22T12:06:48;102610.00;;;10.40
38114;BMP180;23926;53.222;6.354;2023-11-22T12:09:13;102600.00;;;10.30
38114;BMP180;23926;53.222;6.354;2023-11-22T12:11:39;102605.00;;;10.40
38114;BMP180;23926;53.222;6.354;2023-11-22T12:14:04;102592.00;;;10.30
38114;BMP180;23926;53.222;6.354;2023-11-22T12:16:30;102591.00;;;10.30
38114;BMP180;23926;53.222;6.354;2023-11-22T12:18:55;102587.00;;;10.40
38114;BMP180;23926;53.222;6.354;2023-11-22T12:21:23;102591.00;;;10.30
38114;BMP180;23926;53.222;6.354;2023-11-22T12:23:49;102585.00;;;10.20
38114;BMP180;23926;53.222;6.354;2023-11-22T12:26:16;102584.00;;;10.20
38114;BMP180;23926;53.222;6.354;2023-11-22T12:28:49;102584.00;;;10.10
38114;BMP180;23926;53.222;6.354;2023-11-22T12:31:15;102573.00;;;10.00
38114;BMP180;23926;53.222;6.354;2023-11-22T12:33:42;102567.00;;;10.00
38114;BMP180;23926;53.222;6.354;2023-11-22T12:36:08;102574.00;;;9.80
38114;BMP180;23926;53.222;6.354;2023-11-22T12:38:37;102578.00;;;9.80
38114;BMP180;23926;53.222;6.354;2023-11-22T12:41:05;102576.00;;;9.80
38114;BMP180;23926;53.222;6.354;2023-11-22T12:43:35;102571.00;;;9.70
38114;BMP180;23926;53.222;6.354;2023-11-22T12:46:02;102558.00;;;9.70
38114;BMP180;23926;53.222;6.354;2023-11-22T12:48:28;102548.00;;;9.90
38114;BMP180;23926;53.222;6.354;2023-11-22T12:50:58;102550.00;;;10.00
38114;BMP180;23926;53.222;6.354;2023-11-22T12:53:25;102548.00;;;10.00
38114;BMP180;23926;53.222;6.354;2023-11-22T12:55:53;102547.00;;;9.90
38114;BMP180;23926;53.222;6.354;2023-11-22T12:58:20;102550.00;;;9.90
38114;BMP180;23926;53.222;6.354;2023-11-22T13:00:47;102533.00;;;10.10
38114;BMP180;23926;53.222;6.354;2023-11-22T13:03:13;102545.00;;;10.20
38114;BMP180;23926;53.222;6.354;2023-11-22T13:05:39;102535.00;;;10.20
38114;BMP180;23926;53.222;6.354;2023-11-22T13:08:08;102529.00;;;10.10
38114;BMP180;23926;53.222;6.354;2023-11-22T13:10:36;102537.00;;;10.10
38114;BMP180;23926;53.222;6.354;2023-11-22T13:13:01;102534.00;;;10.00
38114;BMP180;23926;53.222;6.354;2023-11-22T13:15:27;102533.00;;;10.10
38114;BMP180;23926;53.222;6.354;2023-11-22T13:17:53;102528.00;;;10.10
38114;BMP180;23926;53.222;6.354;2023-11-22T13:20:24;102522.00;;;10.10
38114;BMP180;23926;53.222;6.354;2023-11-22T13:22:52;102506.00;;;9.90
38114;BMP180;23926;53.222;6.354;2023-11-22T13:25:17;102507.00;;;9.90
38114;BMP180;23926;53.222;6.354;2023-11-22T13:27:47;102503.00;;;9.90
38114;BMP180;23926;53.222;6.354;2023-11-22T13:30:16;102518.00;;;9.90
38114;BMP180;23926;53.222;6.354;2023-11-22T13:32:53;102502.00;;;9.80
38114;BMP180;23926;53.222;6.354;2023-11-22T13:35:22;102502.00;;;9.80
38114;BMP180;23926;53.222;6.354;2023-11-22T13:37:48;102507.00;;;9.80
38114;BMP180;23926;53.222;6.354;2023-11-22T13:40:15;102504.00;;;9.90
38114;BMP180;23926;53.222;6.354;2023-11-22T13:42:46;102503.00;;;9.70
38114;BMP180;23926;53.222;6.354;2023-11-22T13:45:14;102478.00;;;9.70
38114;BMP180;23926;53.222;6.354;2023-11-22T13:47:44;102484.00;;;9.70
38114;BMP180;23926;53.222;6.354;2023-11-22T13:50:10;102467.00;;;9.80
38114;BMP180;23926;53.222;6.354;2023-11-22T13:52:38;102475.00;;;9.80
38114;BMP180;23926;53.222;6.354;2023-11-22T13:55:04;102474.00;;;9.80
38114;BMP180;23926;53.222;6.354;2023-11-22T13:57:33;102473.00;;;9.80
38114;BMP180;23926;53.222;6.354;2023-11-22T13:59:58;102470.00;;;9.80
38114;BMP180;23926;53.222;6.354;2023-11-22T14:02:24;102471.00;;;9.80